createdAt,value
2023-01-07T00:02:00.756Z,101050.25
2023-01-07T00:04:29.753Z,101046.81
2023-01-07T00:06:56.091Z,101053.28
2023-01-07T00:09:25.668Z,101043.09
2023-01-07T00:11:52.127Z,101045.47
2023-01-07T00:14:21.023Z,101034.06
2023-01-07T00:16:49.833Z,101035.94
2023-01-07T00:19:16.380Z,101027.97
2023-01-07T00:21:43.071Z,101023.69
2023-01-07T00:24:10.977Z,101021.44
2023-01-07T00:26:43.956Z,101008.88
2023-01-07T00:29:10.434Z,101010.91
2023-01-07T00:31:39.449Z,101011.41
2023-01-07T00:34:08.007Z,101016.53
2023-01-07T00:36:36.136Z,101006.13
2023-01-07T00:39:14.282Z,101000.16
2023-01-07T00:41:40.823Z,101002.19
2023-01-07T00:44:08.218Z,100999.66
2023-01-07T00:46:35.004Z,100990.63
2023-01-07T00:49:01.983Z,100998.78
2023-01-07T00:51:28.497Z,100993.34
2023-01-07T00:53:54.971Z,100994.72
2023-01-07T00:56:23.801Z,100997.78
2023-01-07T00:58:50.204Z,100985.03
2023-01-07T01:01:19.204Z,100986.03
2023-01-07T01:03:45.801Z,100978.03
2023-01-07T01:06:16.586Z,100974.44
2023-01-07T01:08:47.217Z,100978.88
2023-01-07T01:11:15.950Z,100981.75
2023-01-07T01:13:43.818Z,100981.44
2023-01-07T01:16:13.576Z,100980.06
2023-01-07T01:18:46.255Z,100974.78
2023-01-07T01:21:15.270Z,100976.84
2023-01-07T01:23:42.774Z,100987.19
2023-01-07T01:26:13.855Z,100980.56
2023-01-07T01:28:42.613Z,100974.13
2023-01-07T01:31:14.869Z,100969.53
2023-01-07T01:33:41.274Z,100977.84
2023-01-07T01:36:11.896Z,100980.56
2023-01-07T01:38:38.861Z,100976.66
2023-01-07T01:41:06.215Z,100975.97
2023-01-07T01:43:44.376Z,100974.13
2023-01-07T01:46:19.675Z,100968.81
2023-01-07T01:49:03.627Z,100964.56
2023-01-07T01:51:36.937Z,100963.72
2023-01-07T01:54:07.221Z,100970.00
2023-01-07T01:56:36.892Z,100959.81
2023-01-07T01:59:08.459Z,100959.81
2023-01-07T02:01:36.864Z,100953.69
2023-01-07T02:04:19.185Z,100951.81
2023-01-07T02:07:07.385Z,100949.94
2023-01-07T02:09:37.235Z,100951.63
2023-01-07T02:12:31.138Z,100950.47
2023-01-07T02:15:16.568Z,100949.44
2023-01-07T02:18:01.276Z,100939.25
2023-01-07T02:20:45.297Z,100941.13
2023-01-07T02:23:40.452Z,100942.13
2023-01-07T02:26:50.164Z,100940.28
2023-01-07T02:29:36.617Z,100940.28
2023-01-07T02:32:34.366Z,100933.63
2023-01-07T02:35:29.870Z,100938.22
2023-01-07T02:38:12.692Z,100922.94
2023-01-07T02:40:43.042Z,100922.94
2023-01-07T02:43:22.150Z,100927.53
2023-01-07T02:46:13.175Z,100915.78
2023-01-07T02:48:41.049Z,100909.47
2023-01-07T02:51:10.000Z,100916.78
2023-01-07T02:53:36.939Z,100906.94
2023-01-07T02:56:25.153Z,100903.38
2023-01-07T02:59:16.183Z,100906.41
2023-01-07T03:02:24.224Z,100897.41
2023-01-07T03:05:26.548Z,100892.97
2023-01-07T03:07:55.892Z,100889.25
2023-01-07T03:10:30.491Z,100886.34
2023-01-07T03:13:12.641Z,100885.69
2023-01-07T03:15:44.755Z,100884.81
2023-01-07T03:18:29.036Z,100890.25
2023-01-07T03:21:03.651Z,100880.38
2023-01-07T03:23:31.066Z,100888.56
2023-01-07T03:26:03.026Z,100879.53
2023-01-07T03:28:36.110Z,100878.69
2023-01-07T03:31:04.802Z,100877.84
2023-01-07T03:33:40.127Z,100871.56
2023-01-07T03:36:11.269Z,100873.22
2023-01-07T03:38:38.568Z,100871.56
2023-01-07T03:41:05.944Z,100872.94
2023-01-07T03:43:32.425Z,100871.22
2023-01-07T03:46:01.380Z,100862.34
2023-01-07T03:48:28.230Z,100869.69
2023-01-07T03:50:57.010Z,100868.13
2023-01-07T03:53:25.598Z,100861.84
2023-01-07T03:55:51.999Z,100859.13
2023-01-07T03:58:18.390Z,100856.59
2023-01-07T04:00:44.853Z,100844.16
2023-01-07T04:03:12.625Z,100846.72
2023-01-07T04:05:39.108Z,100850.63
2023-01-07T04:08:05.473Z,100848.91
2023-01-07T04:10:37.170Z,100844.16
2023-01-07T04:13:03.503Z,100844.50
2023-01-07T04:15:29.856Z,100839.03
2023-01-07T04:17:56.654Z,100835.47
2023-01-07T04:20:22.999Z,100840.75
2023-01-07T04:22:49.381Z,100826.50
2023-01-07T04:25:16.320Z,100822.91
2023-01-07T04:27:42.732Z,100822.91
2023-01-07T04:30:09.669Z,100820.19
2023-01-07T04:32:36.964Z,100819.16
2023-01-07T04:35:06.019Z,100816.44
2023-01-07T04:37:32.403Z,100813.72
2023-01-07T04:39:58.799Z,100814.41
2023-01-07T04:42:27.412Z,100801.81
2023-01-07T04:44:56.398Z,100807.97
2023-01-07T04:47:24.219Z,100801.81
2023-01-07T04:49:53.219Z,100800.97
2023-01-07T04:52:19.580Z,100799.28
2023-01-07T04:54:46.012Z,100795.38
2023-01-07T04:57:12.373Z,100791.47
2023-01-07T04:59:38.798Z,100793.50
2023-01-07T05:02:06.877Z,100787.03
2023-01-07T05:04:33.488Z,100795.38
2023-01-07T05:06:59.935Z,100792.47
2023-01-07T05:09:28.774Z,100789.94
2023-01-07T05:11:55.166Z,100782.78
2023-01-07T05:14:21.663Z,100783.47
2023-01-07T05:16:50.671Z,100773.44
2023-01-07T05:19:17.261Z,100781.28
2023-01-07T05:21:43.636Z,100782.94
2023-01-07T05:24:10.171Z,100779.06
2023-01-07T05:26:36.629Z,100777.34
2023-01-07T05:29:05.158Z,100769.34
2023-01-07T05:31:31.549Z,100771.06
2023-01-07T05:33:58.060Z,100764.75
2023-01-07T05:36:27.116Z,100760.38
2023-01-07T05:38:53.523Z,100755.59
2023-01-07T05:41:20.056Z,100758.81
2023-01-07T05:43:46.423Z,100749.81
2023-01-07T05:46:13.171Z,100750.66
2023-01-07T05:48:39.583Z,100748.78
2023-01-07T05:51:06.185Z,100744.19
2023-01-07T05:53:32.734Z,100744.19
2023-01-07T05:56:00.294Z,100741.63
2023-01-07T05:58:27.962Z,100739.97
2023-01-07T06:00:55.640Z,100730.25
2023-01-07T06:03:22.582Z,100729.09
2023-01-07T06:05:49.228Z,100732.47
2023-01-07T06:08:15.676Z,100736.56
2023-01-07T06:10:44.903Z,100732.31
2023-01-07T06:13:11.347Z,100731.63
2023-01-07T06:15:39.168Z,100732.63
2023-01-07T06:18:05.637Z,100737.41
2023-01-07T06:20:34.743Z,100725.66
2023-01-07T06:23:04.319Z,100731.97
2023-01-07T06:25:30.882Z,100726.88
2023-01-07T06:27:58.363Z,100731.44
2023-01-07T06:30:25.261Z,100724.31
2023-01-07T06:32:54.264Z,100724.16
2023-01-07T06:35:20.752Z,100717.84
2023-01-07T06:37:47.232Z,100722.59
2023-01-07T06:40:16.086Z,100715.47
2023-01-07T06:42:42.446Z,100717.34
2023-01-07T06:45:11.023Z,100710.69
2023-01-07T06:47:37.474Z,100707.47
2023-01-07T06:50:04.162Z,100695.09
2023-01-07T06:52:31.394Z,100694.06
2023-01-07T06:54:57.831Z,100693.22
2023-01-07T06:57:29.029Z,100698.47
2023-01-07T06:59:55.407Z,100693.38
2023-01-07T07:02:26.394Z,100690.50
2023-01-07T07:04:53.749Z,100693.38
2023-01-07T07:07:20.656Z,100690.66
2023-01-07T07:09:47.460Z,100677.25
2023-01-07T07:12:19.704Z,100682.84
2023-01-07T07:14:46.207Z,100685.56
2023-01-07T07:17:12.622Z,100681.13
2023-01-07T07:19:39.003Z,100692.16
2023-01-07T07:22:05.387Z,100682.00
2023-01-07T07:24:31.922Z,100684.38
2023-01-07T07:27:00.029Z,100680.13
2023-01-07T07:29:27.887Z,100671.97
2023-01-07T07:31:54.251Z,100675.34
2023-01-07T07:34:23.032Z,100676.91
2023-01-07T07:36:49.430Z,100673.31
2023-01-07T07:39:15.836Z,100668.38
2023-01-07T07:41:45.014Z,100671.78
2023-01-07T07:44:11.400Z,100665.97
2023-01-07T07:46:38.097Z,100657.66
2023-01-07T07:49:05.993Z,100664.13
2023-01-07T07:51:33.272Z,100657.66
2023-01-07T07:53:59.620Z,100651.00
2023-01-07T07:56:25.972Z,100652.03
2023-01-07T07:58:53.805Z,100646.41
2023-01-07T08:01:20.263Z,100643.84
2023-01-07T08:03:46.961Z,100645.22
2023-01-07T08:06:13.891Z,100640.81
2023-01-07T08:08:41.272Z,100642.31
2023-01-07T08:11:10.285Z,100633.81
2023-01-07T08:13:37.857Z,100631.09
2023-01-07T08:16:04.442Z,100632.78
2023-01-07T08:18:33.269Z,100633.47
2023-01-07T08:20:59.733Z,100642.97
2023-01-07T08:23:28.016Z,100625.63
2023-01-07T08:25:58.540Z,100631.41
2023-01-07T08:28:24.939Z,100621.88
2023-01-07T08:30:51.295Z,100622.53
2023-01-07T08:33:17.874Z,100629.31
2023-01-07T08:35:44.963Z,100636.47
2023-01-07T08:38:11.401Z,100636.47
2023-01-07T08:40:40.747Z,100624.38
2023-01-07T08:43:09.182Z,100627.94
2023-01-07T08:45:36.204Z,100627.94
2023-01-07T08:48:03.088Z,100630.66
2023-01-07T08:50:33.133Z,100624.69
2023-01-07T08:53:00.255Z,100633.53
2023-01-07T08:55:26.709Z,100622.97
2023-01-07T08:57:53.221Z,100620.72
2023-01-07T09:00:21.025Z,100620.22
2023-01-07T09:02:49.821Z,100616.94
2023-01-07T09:05:19.194Z,100615.91
2023-01-07T09:07:45.650Z,100622.53
2023-01-07T09:10:12.424Z,100618.59
2023-01-07T09:12:41.051Z,100611.78
2023-01-07T09:15:08.406Z,100616.84
2023-01-07T09:17:37.182Z,100607.66
2023-01-07T09:20:05.602Z,100610.03
2023-01-07T09:22:33.604Z,100604.41
2023-01-07T09:24:59.999Z,100603.19
2023-01-07T09:27:29.679Z,100595.34
2023-01-07T09:29:58.416Z,100596.50
2023-01-07T09:32:26.085Z,100601.22
2023-01-07T09:34:52.618Z,100594.22
2023-01-07T09:37:19.059Z,100586.34
2023-01-07T09:39:45.419Z,100585.44
2023-01-07T09:42:24.181Z,100599.19
2023-01-07T09:45:01.363Z,100586.50
2023-01-07T09:47:30.463Z,100575.22
2023-01-07T09:50:22.256Z,100578.25
2023-01-07T09:52:53.900Z,100579.38
2023-01-07T09:55:35.663Z,100568.41
2023-01-07T09:58:09.810Z,100575.38
2023-01-07T10:00:38.405Z,100575.66
2023-01-07T10:03:20.449Z,100574.94
2023-01-07T10:06:04.259Z,100577.28
2023-01-07T10:08:52.262Z,100567.41
2023-01-07T10:11:29.432Z,100577.94
2023-01-07T10:14:34.274Z,100566.63
2023-01-07T10:17:06.371Z,100563.34
2023-01-07T10:19:35.463Z,100574.75
2023-01-07T10:22:15.651Z,100566.84
2023-01-07T10:24:53.579Z,100569.59
2023-01-07T10:27:30.038Z,100558.59
2023-01-07T10:30:03.938Z,100545.19
2023-01-07T10:32:33.172Z,100540.19
2023-01-07T10:35:01.540Z,100541.06
2023-01-07T10:37:31.454Z,100542.56
2023-01-07T10:40:07.967Z,100538.22
2023-01-07T10:42:45.626Z,100533.69
2023-01-07T10:45:43.877Z,100532.03
2023-01-07T10:48:16.162Z,100528.53
2023-01-07T10:50:57.067Z,100519.66
2023-01-07T10:53:43.068Z,100511.56
2023-01-07T10:56:15.487Z,100494.59
2023-01-07T10:58:45.998Z,100481.88
2023-01-07T11:01:21.511Z,100496.28
2023-01-07T11:03:53.411Z,100481.06
2023-01-07T11:06:27.692Z,100474.03
2023-01-07T11:08:54.937Z,100460.25
2023-01-07T11:11:24.875Z,100482.50
2023-01-07T11:14:06.731Z,100460.81
2023-01-07T11:16:43.588Z,100466.09
2023-01-07T11:19:12.748Z,100466.97
2023-01-07T11:21:44.736Z,100452.91
2023-01-07T11:24:26.578Z,100452.53
2023-01-07T11:26:59.491Z,100452.13
2023-01-07T11:29:34.957Z,100435.81
2023-01-07T11:32:05.967Z,100437.97
2023-01-07T11:34:47.580Z,100435.69
2023-01-07T11:37:34.474Z,100430.63
2023-01-07T11:40:05.010Z,100426.31
2023-01-07T11:42:40.619Z,100431.16
2023-01-07T11:45:22.801Z,100401.13
2023-01-07T11:47:55.772Z,100429.50
2023-01-07T11:50:30.594Z,100414.22
2023-01-07T11:53:00.222Z,100424.75
2023-01-07T11:55:27.195Z,100404.16
2023-01-07T11:58:00.955Z,100402.47
2023-01-07T12:00:43.456Z,100394.94
2023-01-07T12:03:16.278Z,100381.75
2023-01-07T12:05:46.660Z,100378.22
2023-01-07T12:08:23.558Z,100385.56
2023-01-07T12:10:58.429Z,100381.22
2023-01-07T12:13:27.941Z,100365.91
2023-01-07T12:16:06.066Z,100372.63
2023-01-07T12:18:57.325Z,100369.94
2023-01-07T12:21:33.951Z,100360.31
2023-01-07T12:24:03.423Z,100356.31
2023-01-07T12:26:40.999Z,100362.84
2023-01-07T12:29:26.248Z,100348.78
2023-01-07T12:32:19.189Z,100350.97
2023-01-07T12:34:55.834Z,100347.59
2023-01-07T12:37:37.277Z,100351.13
2023-01-07T12:40:10.745Z,100347.31
2023-01-07T12:42:40.959Z,100341.84
2023-01-07T12:45:32.613Z,100325.06
2023-01-07T12:48:04.291Z,100322.09
2023-01-07T12:50:40.954Z,100318.31
2023-01-07T12:53:19.258Z,100307.81
2023-01-07T12:55:52.515Z,100301.91
2023-01-07T12:58:57.757Z,100292.09
2023-01-07T13:01:37.009Z,100288.34
2023-01-07T13:04:06.373Z,100285.03
2023-01-07T13:06:43.569Z,100285.38
2023-01-07T13:09:21.918Z,100288.97
2023-01-07T13:12:41.543Z,100289.13
2023-01-07T13:15:20.830Z,100277.13
2023-01-07T13:17:52.599Z,100262.59
2023-01-07T13:20:47.181Z,100267.59
2023-01-07T13:23:24.767Z,100256.84
2023-01-07T13:26:12.116Z,100260.44
2023-01-07T13:28:41.175Z,100248.22
2023-01-07T13:31:45.363Z,100246.06
2023-01-07T13:34:11.931Z,100239.94
2023-01-07T13:37:11.567Z,100232.72
2023-01-07T13:40:02.979Z,100225.56
2023-01-07T13:42:53.523Z,100221.94
2023-01-07T13:45:24.841Z,100231.38
2023-01-07T13:47:59.153Z,100231.56
2023-01-07T13:50:34.663Z,100237.66
2023-01-07T13:53:27.200Z,100231.97
2023-01-07T13:56:20.379Z,100244.59
2023-01-07T13:58:47.790Z,100253.59
2023-01-07T14:01:22.328Z,100231.47
2023-01-07T14:03:53.793Z,100226.34
2023-01-07T14:06:20.285Z,100221.66
2023-01-07T14:08:52.572Z,100226.00
2023-01-07T14:11:42.053Z,100211.41
2023-01-07T14:14:21.401Z,100209.91
2023-01-07T14:17:21.645Z,100207.19
2023-01-07T14:20:13.768Z,100210.66
2023-01-07T14:23:16.472Z,100206.25
2023-01-07T14:25:45.745Z,100205.78
2023-01-07T14:28:39.386Z,100202.38
2023-01-07T14:31:19.632Z,100198.13
2023-01-07T14:33:58.191Z,100198.44
2023-01-07T14:37:04.847Z,100199.88
2023-01-07T14:39:34.172Z,100201.69
2023-01-07T14:42:19.121Z,100197.47
2023-01-07T14:44:50.109Z,100200.53
2023-01-07T14:47:44.749Z,100193.06
2023-01-07T14:50:28.255Z,100205.16
2023-01-07T14:53:16.899Z,100192.00
2023-01-07T14:56:13.090Z,100198.09
2023-01-07T14:58:56.443Z,100192.81
2023-01-07T15:01:35.972Z,100189.75
2023-01-07T15:04:21.101Z,100187.03
2023-01-07T15:06:50.622Z,100181.56
2023-01-07T15:09:41.712Z,100196.69
2023-01-07T15:12:36.374Z,100179.13
2023-01-07T15:15:34.287Z,100174.25
2023-01-07T15:18:00.909Z,100172.19
2023-01-07T15:20:45.330Z,100172.75
2023-01-07T15:23:19.197Z,100178.03
2023-01-07T15:25:58.561Z,100170.97
2023-01-07T15:28:40.493Z,100156.91
2023-01-07T15:31:21.285Z,100170.69
2023-01-07T15:34:14.518Z,100165.81
2023-01-07T15:36:46.003Z,100163.28
2023-01-07T15:39:25.628Z,100172.50
2023-01-07T15:41:58.680Z,100164.25
2023-01-07T15:44:29.027Z,100164.25
2023-01-07T15:46:55.653Z,100165.09
2023-01-07T15:49:28.676Z,100166.03
2023-01-07T15:52:00.507Z,100155.72
2023-01-07T15:54:31.208Z,100166.38
2023-01-07T15:57:01.593Z,100160.59
2023-01-07T15:59:33.162Z,100155.41
2023-01-07T16:02:29.105Z,100157.16
2023-01-07T16:05:03.732Z,100155.38
2023-01-07T16:07:50.336Z,100155.44
2023-01-07T16:10:26.380Z,100156.84
2023-01-07T16:12:58.566Z,100161.78
2023-01-07T16:15:30.961Z,100160.31
2023-01-07T16:18:00.375Z,100149.50
2023-01-07T16:20:38.822Z,100158.94
2023-01-07T16:23:10.626Z,100149.13
2023-01-07T16:25:42.874Z,100155.47
2023-01-07T16:28:14.588Z,100140.44
2023-01-07T16:30:42.992Z,100142.38
2023-01-07T16:33:18.213Z,100134.91
2023-01-07T16:35:47.388Z,100133.63
2023-01-07T16:38:16.202Z,100122.69
2023-01-07T16:40:44.554Z,100127.28
2023-01-07T16:43:46.263Z,100116.91
2023-01-07T16:46:24.973Z,100120.63
2023-01-07T16:49:09.525Z,100120.34
2023-01-07T16:51:49.998Z,100115.19
2023-01-07T16:54:28.648Z,100115.41
2023-01-07T16:57:02.405Z,100111.81
2023-01-07T16:59:34.915Z,100104.19
2023-01-07T17:02:27.981Z,100107.09
2023-01-07T17:04:58.119Z,100107.41
2023-01-07T17:07:30.596Z,100107.91
2023-01-07T17:09:58.516Z,100100.50
2023-01-07T17:12:29.995Z,100100.81
2023-01-07T17:14:56.390Z,100112.97
2023-01-07T17:17:43.917Z,100096.38
2023-01-07T17:20:22.524Z,100094.47
2023-01-07T17:22:49.897Z,100091.44
2023-01-07T17:25:25.971Z,100080.44
2023-01-07T17:28:02.671Z,100077.28
2023-01-07T17:30:38.499Z,100077.47
2023-01-07T17:33:05.011Z,100090.25
2023-01-07T17:35:31.480Z,100090.94
2023-01-07T17:37:57.888Z,100084.88
2023-01-07T17:40:24.354Z,100089.22
2023-01-07T17:43:09.836Z,100086.53
2023-01-07T17:45:37.036Z,100088.75
2023-01-07T17:48:13.733Z,100081.63
2023-01-07T17:50:42.246Z,100082.16
2023-01-07T17:53:30.326Z,100081.72
2023-01-07T17:55:57.798Z,100073.25
2023-01-07T17:58:32.303Z,100078.47
2023-01-07T18:01:00.937Z,100083.06
2023-01-07T18:03:28.185Z,100066.28
2023-01-07T18:05:54.840Z,100073.47
2023-01-07T18:08:21.688Z,100074.69
2023-01-07T18:11:07.375Z,100072.59
2023-01-07T18:13:33.796Z,100065.81
2023-01-07T18:16:00.416Z,100067.00
2023-01-07T18:18:29.995Z,100067.75
2023-01-07T18:20:57.603Z,100073.50
2023-01-07T18:23:25.112Z,100066.78
2023-01-07T18:25:51.682Z,100076.53
2023-01-07T18:28:19.352Z,100074.22
2023-01-07T18:30:45.716Z,100085.41
2023-01-07T18:33:12.624Z,100070.13
2023-01-07T18:35:42.416Z,100074.72
2023-01-07T18:38:18.568Z,100066.97
2023-01-07T18:40:45.305Z,100071.34
2023-01-07T18:43:16.824Z,100065.75
2023-01-07T18:45:44.970Z,100061.88
2023-01-07T18:48:13.487Z,100056.25
2023-01-07T18:50:44.303Z,100054.75
2023-01-07T18:53:16.114Z,100061.66
2023-01-07T18:55:43.510Z,100049.00
2023-01-07T18:58:13.736Z,100051.59
2023-01-07T19:00:41.199Z,100050.22
2023-01-07T19:03:07.637Z,100043.09
2023-01-07T19:05:34.121Z,100052.47
2023-01-07T19:08:00.462Z,100044.25
2023-01-07T19:10:27.998Z,100048.03
2023-01-07T19:12:54.559Z,100052.28
2023-01-07T19:15:21.035Z,100042.13
2023-01-07T19:17:47.488Z,100047.75
2023-01-07T19:20:15.334Z,100039.06
2023-01-07T19:22:42.058Z,100040.69
2023-01-07T19:25:11.458Z,100055.34
2023-01-07T19:27:37.870Z,100052.38
2023-01-07T19:30:12.078Z,100058.66
2023-01-07T19:32:38.553Z,100047.94
2023-01-07T19:35:08.041Z,100048.94
2023-01-07T19:37:37.439Z,100044.72
2023-01-07T19:40:05.308Z,100041.59
2023-01-07T19:42:32.863Z,100031.09
2023-01-07T19:45:03.575Z,100024.41
2023-01-07T19:47:30.003Z,100029.72
2023-01-07T19:49:56.428Z,100018.50
2023-01-07T19:52:23.212Z,100025.31
2023-01-07T19:54:52.465Z,100023.75
2023-01-07T19:57:18.903Z,100025.78
2023-01-07T19:59:46.485Z,100023.88
2023-01-07T20:02:14.423Z,100014.50
2023-01-07T20:04:42.747Z,100015.47
2023-01-07T20:07:10.599Z,100018.22
2023-01-07T20:09:37.052Z,100006.78
2023-01-07T20:12:03.798Z,100004.75
2023-01-07T20:14:30.214Z,100007.63
2023-01-07T20:16:56.709Z,100003.09
2023-01-07T20:19:23.391Z,99999.66
2023-01-07T20:21:50.813Z,100012.09
2023-01-07T20:24:17.202Z,100004.38
2023-01-07T20:26:43.615Z,100014.13
2023-01-07T20:29:12.319Z,99993.66
2023-01-07T20:31:38.805Z,99998.28
2023-01-07T20:34:05.231Z,100000.34
2023-01-07T20:36:34.471Z,99999.66
2023-01-07T20:39:05.865Z,100005.09
2023-01-07T20:41:35.212Z,100006.47
2023-01-07T20:44:03.330Z,99995.44
2023-01-07T20:46:31.093Z,100013.06
2023-01-07T20:48:59.327Z,100008.41
2023-01-07T20:51:25.813Z,100011.31
2023-01-07T20:53:52.440Z,100004.56
2023-01-07T20:56:22.502Z,99997.75
2023-01-07T20:58:49.840Z,100019.91
2023-01-07T21:01:19.696Z,100011.81
2023-01-07T21:03:52.973Z,100015.63
2023-01-07T21:06:22.831Z,100008.53
2023-01-07T21:08:52.192Z,99999.53
2023-01-07T21:11:25.781Z,99986.69
2023-01-07T21:14:05.358Z,99975.31
2023-01-07T21:16:32.453Z,99981.50
2023-01-07T21:18:58.881Z,99973.25
2023-01-07T21:21:25.720Z,99985.81
2023-01-07T21:23:53.423Z,99980.50
2023-01-07T21:26:20.980Z,99994.22
2023-01-07T21:28:47.374Z,99982.41
2023-01-07T21:31:15.693Z,99992.13
2023-01-07T21:33:46.326Z,99999.38
2023-01-07T21:36:18.400Z,99994.84
2023-01-07T21:38:49.273Z,100011.41
2023-01-07T21:41:17.066Z,100005.00
2023-01-07T21:43:44.423Z,99998.44
2023-01-07T21:46:18.072Z,99994.41
2023-01-07T21:48:46.987Z,99991.50
2023-01-07T21:51:25.871Z,99984.19
2023-01-07T21:53:56.330Z,99978.41
2023-01-07T21:56:27.081Z,99990.84
2023-01-07T21:58:53.662Z,99987.69
2023-01-07T22:01:20.131Z,99990.22
2023-01-07T22:03:49.966Z,99986.84
2023-01-07T22:06:22.025Z,99976.88
2023-01-07T22:08:55.986Z,99981.41
2023-01-07T22:11:22.616Z,99986.84
2023-01-07T22:13:50.879Z,99993.06
2023-01-07T22:16:17.852Z,99991.69
2023-01-07T22:18:44.327Z,99996.88
2023-01-07T22:21:10.811Z,99997.03
2023-01-07T22:23:44.286Z,100016.41
2023-01-07T22:26:10.797Z,100007.63
2023-01-07T22:28:38.590Z,100015.59
2023-01-07T22:31:21.581Z,100006.06
2023-01-07T22:33:48.522Z,99999.81
2023-01-07T22:36:21.663Z,99992.31
2023-01-07T22:38:49.450Z,99989.13
2023-01-07T22:41:18.147Z,99979.66
2023-01-07T22:43:44.812Z,99982.94
2023-01-07T22:46:19.731Z,99988.47
2023-01-07T22:48:46.102Z,99984.91
2023-01-07T22:51:20.895Z,99985.91
2023-01-07T22:53:56.174Z,99983.22
2023-01-07T22:56:23.475Z,99983.69
2023-01-07T22:58:50.075Z,99986.03
2023-01-07T23:01:19.504Z,99989.44
2023-01-07T23:03:46.227Z,99981.56
2023-01-07T23:06:15.057Z,99968.38
2023-01-07T23:08:42.103Z,99971.44
2023-01-07T23:11:11.134Z,99961.91
2023-01-07T23:13:38.127Z,99966.66
2023-01-07T23:16:06.631Z,99966.03
2023-01-07T23:18:33.219Z,99962.09
2023-01-07T23:20:59.674Z,99964.63
2023-01-07T23:23:26.053Z,99955.28
2023-01-07T23:25:52.528Z,99957.13
2023-01-07T23:28:19.494Z,99956.97
2023-01-07T23:30:45.964Z,99955.94
2023-01-07T23:33:12.393Z,99955.75
2023-01-07T23:35:38.753Z,99951.16
2023-01-07T23:38:05.355Z,99954.28
2023-01-07T23:40:31.937Z,99954.47
2023-01-07T23:42:58.404Z,99943.44
2023-01-07T23:45:24.794Z,99941.03
2023-01-07T23:47:51.223Z,99944.00
2023-01-07T23:50:17.815Z,99932.81
2023-01-07T23:52:44.187Z,99915.09
2023-01-07T23:55:10.826Z,99921.16
2023-01-07T23:57:39.559Z,99904.19
